Time;durP1;ratioP1;P1;durP2;ratioP2;P2;SDS_P1;SDS_P2;PMS_P1;PMS_P2;Temp;Humidity;BMP_temperature;BMP_pressure;BME280_temperature;BME280_humidity;BME280_pressure;Samples;Min_cycle;Max_cycle;Signal;HPM_P1;HPM_P2
2022/05/06 00:01:24;;;;;;;32.93;19.37;;;9.30;99.90;;;;;;4194452;28;20643;-72
2022/05/06 00:03:25;;;;;;;30.77;17.03;;;9.30;99.90;;;;;;4193321;28;20278;-71
2022/05/06 00:05:25;;;;;;;56.73;22.10;;;9.30;99.90;;;;;;4189987;28;20175;-73
2022/05/06 00:07:27;;;;;;;54.67;22.50;;;9.30;99.90;;;;;;4178187;28;20192;-72
2022/05/06 00:09:28;;;;;;;31.90;17.30;;;9.20;99.90;;;;;;4178207;28;20195;-71
2022/05/06 00:11:29;;;;;;;34.47;19.27;;;9.20;99.90;;;;;;4177932;28;20305;-72
2022/05/06 00:13:31;;;;;;;59.90;23.67;;;9.30;99.90;;;;;;4176741;28;20679;-72
2022/05/06 00:15:31;;;;;;;64.80;22.63;;;9.20;99.90;;;;;;4176019;28;20175;-71
2022/05/06 00:17:33;;;;;;;51.73;20.87;;;9.20;99.90;;;;;;4176531;28;20355;-73
2022/05/06 00:19:34;;;;;;;52.97;20.67;;;9.20;99.90;;;;;;4176637;28;20211;-72
2022/05/06 00:21:35;;;;;;;39.60;18.97;;;9.20;99.90;;;;;;4176578;28;20180;-72
2022/05/06 00:23:36;;;;;;;47.07;20.17;;;9.20;99.90;;;;;;4177952;28;20954;-72
2022/05/06 00:25:37;;;;;;;38.93;17.43;;;9.20;99.90;;;;;;4159483;28;20195;-72
2022/05/06 00:27:41;;;;;;;32.23;17.43;;;9.20;99.90;;;;;;4178504;28;20183;-72
2022/05/06 00:29:42;;;;;;;43.57;20.37;;;9.30;99.90;;;;;;4180572;28;20206;-73
2022/05/06 00:31:43;;;;;;;45.73;19.37;;;9.30;99.90;;;;;;4180793;28;20190;-73
2022/05/06 00:33:43;;;;;;;48.43;21.90;;;9.30;99.90;;;;;;4179352;28;20186;-72
2022/05/06 00:35:44;;;;;;;69.33;22.73;;;9.30;99.90;;;;;;4178908;28;20208;-72
2022/05/06 00:37:45;;;;;;;37.63;19.00;;;9.30;99.90;;;;;;4180682;28;20176;-74
2022/05/06 00:39:46;;;;;;;42.13;19.80;;;9.30;99.90;;;;;;4179445;28;20248;-72
2022/05/06 00:41:46;;;;;;;44.33;20.57;;;9.30;99.90;;;;;;4180891;28;20180;-72
2022/05/06 00:43:47;;;;;;;45.60;20.70;;;9.30;99.90;;;;;;4180499;28;20182;-72
2022/05/06 00:45:54;;;;;;;51.93;20.47;;;9.30;99.90;;;;;;4179986;28;20183;-72
2022/05/06 00:47:54;;;;;;;36.70;19.13;;;9.30;99.90;;;;;;4179751;28;20160;-73
2022/05/06 00:49:55;;;;;;;39.77;20.90;;;9.30;99.90;;;;;;4180826;28;20223;-73
2022/05/06 00:51:56;;;;;;;44.63;20.27;;;9.30;99.90;;;;;;4180554;28;20266;-73
2022/05/06 00:53:57;;;;;;;41.57;18.87;;;9.30;99.90;;;;;;4180463;28;20208;-72
2022/05/06 00:55:58;;;;;;;49.90;21.93;;;9.30;99.90;;;;;;4178618;28;20271;-73
2022/05/06 00:57:59;;;;;;;42.80;20.80;;;9.40;99.90;;;;;;4180378;28;20189;-72
2022/05/06 01:00:18;;;;;;;33.73;18.27;;;9.30;99.90;;;;;;4180136;28;20689;-73
2022/05/06 01:02:20;;;;;;;36.53;18.83;;;9.30;99.90;;;;;;4179051;28;20183;-72
2022/05/06 01:04:22;;;;;;;37.87;19.07;;;9.30;99.90;;;;;;4180403;28;20230;-73
2022/05/06 01:06:24;;;;;;;33.43;18.67;;;9.30;99.90;;;;;;4179807;28;20596;-72
2022/05/06 01:08:25;;;;;;;35.83;18.97;;;9.20;99.90;;;;;;4178930;28;20186;-71
2022/05/06 01:10:25;;;;;;;34.47;20.23;;;9.30;99.90;;;;;;4180134;28;20242;-70
2022/05/06 01:15:42;;;;;;;33.07;17.30;;;9.30;99.90;;;;;;4179395;28;20443;-72
2022/05/06 01:17:42;;;;;;;37.20;18.00;;;9.30;99.90;;;;;;4178866;28;20670;-72
2022/05/06 01:19:43;;;;;;;36.67;18.90;;;9.40;99.90;;;;;;4179936;28;20216;-71
2022/05/06 01:21:53;;;;;;;38.57;20.37;;;9.30;99.90;;;;;;4180122;28;20187;-73
2022/05/06 01:23:54;;;;;;;30.33;17.67;;;9.30;99.90;;;;;;4180086;28;20609;-72
2022/05/06 01:25:55;;;;;;;30.00;17.83;;;9.30;99.90;;;;;;4179414;28;20270;-72
2022/05/06 01:28:03;;;;;;;32.17;18.40;;;9.40;99.90;;;;;;4179999;28;20184;-72
2022/05/06 01:30:04;;;;;;;38.20;20.30;;;9.30;99.90;;;;;;4178753;28;20210;-72
2022/05/06 01:32:06;;;;;;;35.93;18.70;;;9.30;99.90;;;;;;4179838;28;20202;-72
2022/05/06 01:34:10;;;;;;;29.03;17.27;;;9.40;99.90;;;;;;4180012;28;20219;-71
2022/05/06 01:36:11;;;;;;;31.13;17.90;;;9.30;99.90;;;;;;4161305;28;20259;-73
2022/05/06 01:38:20;;;;;;;30.07;16.37;;;9.40;99.90;;;;;;4162055;28;20837;-72
2022/05/06 01:40:24;;;;;;;32.10;18.30;;;9.40;99.90;;;;;;4177808;28;20202;-72
2022/05/06 01:42:27;;;;;;;25.10;15.60;;;9.30;99.90;;;;;;4178499;28;20185;-74
2022/05/06 01:44:35;;;;;;;34.93;18.27;;;9.30;99.90;;;;;;4161882;28;20277;-72
2022/05/06 01:46:37;;;;;;;23.60;13.77;;;9.40;99.90;;;;;;4177592;28;20259;-71
2022/05/06 01:48:39;;;;;;;22.67;13.80;;;9.30;99.90;;;;;;4178271;28;20195;-72
2022/05/06 01:50:40;;;;;;;33.00;17.63;;;9.40;99.90;;;;;;4178586;28;20680;-71
2022/05/06 01:52:43;;;;;;;29.13;16.87;;;9.30;99.90;;;;;;4178272;28;20269;-72
2022/05/06 01:54:45;;;;;;;30.87;17.03;;;9.30;99.90;;;;;;4178283;28;20189;-72
2022/05/06 01:56:46;;;;;;;22.63;15.07;;;9.30;99.90;;;;;;4177464;28;20187;-72
2022/05/06 01:58:49;;;;;;;23.97;15.03;;;9.30;99.90;;;;;;4180556;28;20671;-73
2022/05/06 02:00:50;;;;;;;23.57;14.07;;;9.30;99.90;;;;;;4179896;28;20202;-72
2022/05/06 02:02:51;;;;;;;25.77;15.13;;;9.40;99.90;;;;;;4195775;28;20194;-71
2022/05/06 02:07:10;;;;;;;22.30;13.23;;;9.50;99.90;;;;;;4195560;28;20196;-71
2022/05/06 02:09:11;;;;;;;22.83;13.60;;;9.40;99.90;;;;;;4194257;28;20187;-71
2022/05/06 02:11:12;;;;;;;22.37;13.73;;;9.30;99.90;;;;;;4195700;28;20222;-72
2022/05/06 02:13:12;;;;;;;34.87;16.27;;;9.40;99.90;;;;;;4195688;28;20274;-72
2022/05/06 02:15:15;;;;;;;26.20;14.60;;;9.40;99.90;;;;;;4195497;28;20174;-72
2022/05/06 02:17:16;;;;;;;31.13;15.10;;;9.40;99.90;;;;;;4194025;28;20186;-71
2022/05/06 02:19:17;;;;;;;22.53;13.97;;;9.30;99.90;;;;;;4194330;28;20611;-71
2022/05/06 02:21:17;;;;;;;21.03;14.23;;;9.40;99.90;;;;;;4187406;28;20771;-73
2022/05/06 02:23:18;;;;;;;25.07;15.67;;;9.40;99.90;;;;;;4195565;28;20556;-74
2022/05/06 02:25:18;;;;;;;25.10;14.13;;;9.30;99.90;;;;;;4195665;28;20681;-73
2022/05/06 02:27:19;;;;;;;39.07;18.07;;;9.30;99.90;;;;;;4195203;28;20207;-72
2022/05/06 02:29:20;;;;;;;21.00;13.47;;;9.20;99.90;;;;;;4195438;28;20247;-72
2022/05/06 02:33:41;;;;;;;26.87;15.93;;;9.30;99.90;;;;;;4194461;28;20216;-72
2022/05/06 02:35:46;;;;;;;24.47;14.23;;;9.30;99.90;;;;;;4194912;28;20186;-72
2022/05/06 02:37:47;;;;;;;23.17;13.00;;;9.30;99.90;;;;;;4193126;28;20191;-72
2022/05/06 02:39:48;;;;;;;25.17;14.03;;;9.30;99.90;;;;;;4195292;28;20694;-73
2022/05/06 02:41:48;;;;;;;20.87;14.30;;;9.30;99.90;;;;;;4195639;28;20240;-73
2022/05/06 02:43:49;;;;;;;19.57;13.20;;;9.40;99.90;;;;;;4210867;28;20220;-71
2022/05/06 02:45:49;;;;;;;27.33;14.73;;;9.40;99.90;;;;;;4194817;28;20205;-71
2022/05/06 02:47:51;;;;;;;25.07;14.77;;;9.30;99.90;;;;;;4194362;28;20183;-72
2022/05/06 02:49:52;;;;;;;23.83;13.87;;;9.40;99.90;;;;;;4193854;28;20260;-72
2022/05/06 02:51:53;;;;;;;25.20;14.00;;;9.40;99.90;;;;;;4195117;28;20195;-73
2022/05/06 02:53:54;;;;;;;23.90;14.20;;;9.30;99.90;;;;;;4195559;28;20183;-72
2022/05/06 02:55:54;;;;;;;28.43;16.70;;;9.40;99.90;;;;;;4194889;28;20180;-72
2022/05/06 02:57:56;;;;;;;25.63;15.70;;;9.30;99.90;;;;;;4195324;28;20237;-73
2022/05/06 02:59:57;;;;;;;21.37;12.70;;;9.30;99.90;;;;;;4194003;28;20224;-72
2022/05/06 03:01:57;;;;;;;26.87;15.67;;;9.40;99.90;;;;;;4193864;28;20282;-72
2022/05/06 03:03:58;;;;;;;30.77;15.83;;;9.30;99.90;;;;;;4195511;28;20186;-73
2022/05/06 03:06:00;;;;;;;31.63;17.97;;;9.30;99.90;;;;;;4193742;28;20214;-72
2022/05/06 03:08:00;;;;;;;31.97;16.97;;;9.30;99.90;;;;;;4194168;28;20169;-71
2022/05/06 03:10:02;;;;;;;24.23;13.97;;;9.30;99.90;;;;;;4194046;28;20207;-73
2022/05/06 03:12:03;;;;;;;25.80;15.00;;;9.30;99.90;;;;;;4193858;28;20190;-72
2022/05/06 03:14:04;;;;;;;20.90;13.97;;;9.30;99.90;;;;;;4193740;28;20250;-72
2022/05/06 03:16:04;;;;;;;20.50;13.07;;;9.30;99.90;;;;;;4193363;28;20175;-72
2022/05/06 03:18:05;;;;;;;23.77;13.90;;;9.40;99.90;;;;;;4195084;28;20172;-72
2022/05/06 03:20:08;;;;;;;24.17;13.80;;;9.30;99.90;;;;;;4195231;28;20215;-72
2022/05/06 03:22:09;;;;;;;21.17;13.90;;;9.30;99.90;;;;;;4194002;28;20271;-71
2022/05/06 03:24:10;;;;;;;28.70;15.67;;;9.30;99.90;;;;;;4193865;28;20685;-73
2022/05/06 03:26:10;;;;;;;26.10;15.20;;;9.30;99.90;;;;;;4193014;28;20186;-73
2022/05/06 03:28:11;;;;;;;24.13;13.23;;;9.30;99.90;;;;;;4195061;28;20729;-72
2022/05/06 03:30:12;;;;;;;20.73;13.23;;;9.30;99.90;;;;;;4195245;28;20614;-72
2022/05/06 03:32:12;;;;;;;27.97;15.30;;;9.30;99.90;;;;;;4195050;28;20203;-73
2022/05/06 03:34:15;;;;;;;28.83;15.27;;;9.30;99.90;;;;;;4194819;28;20176;-72
2022/05/06 03:36:16;;;;;;;25.03;14.40;;;9.30;99.90;;;;;;4193009;28;20544;-72
2022/05/06 03:38:16;;;;;;;23.30;14.27;;;9.30;99.90;;;;;;4194102;28;20167;-73
2022/05/06 03:40:17;;;;;;;20.97;12.23;;;9.20;99.90;;;;;;4194902;28;20202;-72
2022/05/06 03:42:18;;;;;;;19.47;12.60;;;9.30;99.90;;;;;;4195083;28;20186;-72
2022/05/06 03:44:18;;;;;;;22.57;15.10;;;9.40;99.90;;;;;;4194749;28;20180;-73
2022/05/06 03:46:19;;;;;;;28.23;15.90;;;9.40;99.90;;;;;;4194024;28;20211;-73
2022/05/06 03:48:24;;;;;;;32.03;17.13;;;9.30;99.90;;;;;;4194737;28;20193;-72
2022/05/06 03:52:50;;;;;;;30.30;16.07;;;9.20;99.90;;;;;;4193929;28;20182;-72
2022/05/06 03:54:52;;;;;;;25.27;13.17;;;9.20;99.90;;;;;;4177010;28;20195;-73
2022/05/06 03:56:53;;;;;;;32.73;18.47;;;9.20;99.90;;;;;;4196156;28;20236;-73
2022/05/06 03:58:54;;;;;;;23.37;14.50;;;9.20;99.90;;;;;;4197589;28;20175;-73
2022/05/06 04:00:55;;;;;;;27.97;16.17;;;9.20;99.90;;;;;;4193818;28;20203;-72
2022/05/06 04:02:55;;;;;;;27.83;16.03;;;9.20;99.90;;;;;;4196582;28;20186;-73
2022/05/06 04:04:56;;;;;;;24.07;14.77;;;9.20;99.90;;;;;;4197230;28;20191;-72
2022/05/06 04:06:57;;;;;;;36.10;19.67;;;9.20;99.90;;;;;;4197973;28;20183;-72
2022/05/06 04:08:57;;;;;;;31.20;18.70;;;9.30;99.90;;;;;;4198436;28;20222;-73
2022/05/06 04:10:58;;;;;;;25.60;15.93;;;9.20;99.90;;;;;;4198347;28;20686;-72
2022/05/06 04:12:59;;;;;;;30.90;16.70;;;9.20;99.90;;;;;;4198816;28;20180;-72
2022/05/06 04:15:00;;;;;;;24.33;15.87;;;9.20;99.90;;;;;;4198855;28;20201;-72
2022/05/06 04:17:03;;;;;;;22.67;14.63;;;9.20;99.90;;;;;;4197862;28;20190;-72
2022/05/06 04:19:04;;;;;;;26.13;15.00;;;9.20;99.90;;;;;;4198577;28;20179;-73
2022/05/06 04:23:30;;;;;;;29.20;16.10;;;9.30;99.90;;;;;;4198317;28;20178;-74
2022/05/06 04:25:30;;;;;;;27.70;14.93;;;9.40;99.90;;;;;;4200783;28;20172;-74
2022/05/06 04:27:33;;;;;;;26.47;15.47;;;9.40;99.90;;;;;;4201095;28;20676;-72
2022/05/06 04:29:34;;;;;;;32.20;16.43;;;9.40;99.90;;;;;;4201002;28;20199;-73
2022/05/06 04:31:35;;;;;;;30.53;16.67;;;9.30;99.90;;;;;;4200913;28;20215;-73
2022/05/06 04:33:39;;;;;;;25.37;15.23;;;9.30;99.90;;;;;;4189736;28;20192;-73
2022/05/06 04:35:40;;;;;;;27.43;16.43;;;9.30;99.90;;;;;;4198264;28;20186;-73
2022/05/06 04:37:40;;;;;;;31.97;15.90;;;9.30;99.90;;;;;;4199530;28;20183;-74
2022/05/06 04:39:41;;;;;;;33.40;18.47;;;9.40;99.90;;;;;;4200756;28;20253;-73
2022/05/06 04:41:42;;;;;;;30.83;16.70;;;9.30;99.90;;;;;;4201034;28;20191;-73
2022/05/06 04:43:43;;;;;;;27.50;16.10;;;9.30;99.90;;;;;;4200855;28;20186;-73
2022/05/06 04:45:44;;;;;;;30.77;17.07;;;9.50;99.90;;;;;;4200155;28;20217;-72
2022/05/06 04:47:44;;;;;;;25.33;15.83;;;9.50;99.90;;;;;;4199657;28;20200;-73
2022/05/06 04:49:45;;;;;;;34.10;18.17;;;9.50;99.90;;;;;;4200740;28;20211;-72
2022/05/06 04:51:46;;;;;;;30.23;18.27;;;9.40;99.90;;;;;;4199641;28;20258;-72
2022/05/06 04:53:46;;;;;;;30.63;16.70;;;9.40;99.90;;;;;;4200725;28;20176;-72
2022/05/06 04:55:48;;;;;;;29.87;18.20;;;9.40;99.90;;;;;;4198932;28;20179;-72
2022/05/06 04:57:49;;;;;;;27.77;17.20;;;9.60;99.90;;;;;;4200681;28;20203;-73
2022/05/06 04:59:50;;;;;;;31.87;16.70;;;9.50;99.90;;;;;;4197597;28;20343;-72
2022/05/06 05:01:50;;;;;;;30.83;18.47;;;9.50;99.90;;;;;;4195513;28;20182;-72
2022/05/06 05:03:51;;;;;;;33.77;18.60;;;9.50;99.90;;;;;;4195457;28;20176;-72
2022/05/06 05:05:52;;;;;;;32.63;18.20;;;9.50;99.90;;;;;;4196510;28;20228;-72
2022/05/06 05:07:55;;;;;;;38.07;19.73;;;9.40;99.90;;;;;;4196791;28;20210;-72
2022/05/06 05:09:56;;;;;;;32.70;18.87;;;9.50;99.90;;;;;;4195076;28;20210;-72
2022/05/06 05:11:57;;;;;;;34.87;19.30;;;9.60;99.90;;;;;;4196557;28;20179;-73
2022/05/06 05:14:00;;;;;;;34.37;17.93;;;9.50;99.90;;;;;;4194981;28;20222;-73
2022/05/06 05:16:00;;;;;;;34.67;18.63;;;9.60;99.90;;;;;;4194695;28;20210;-72
2022/05/06 05:18:01;;;;;;;34.03;18.90;;;9.60;99.90;;;;;;4195371;28;20324;-72
2022/05/06 05:20:03;;;;;;;33.20;18.30;;;9.60;99.90;;;;;;4196309;28;20224;-73
2022/05/06 05:22:04;;;;;;;31.63;19.07;;;9.40;99.90;;;;;;4196617;28;20206;-73
2022/05/06 05:24:06;;;;;;;32.70;18.93;;;9.50;99.90;;;;;;4196428;28;20211;-72
2022/05/06 05:26:06;;;;;;;31.43;19.07;;;9.60;99.90;;;;;;4194586;28;20190;-73
2022/05/06 05:28:07;;;;;;;35.20;18.57;;;9.50;99.90;;;;;;4196362;28;20187;-72
2022/05/06 05:30:10;;;;;;;35.53;19.00;;;9.60;99.90;;;;;;4196514;28;20225;-72
2022/05/06 05:32:11;;;;;;;35.87;21.53;;;9.60;99.90;;;;;;4196279;28;20190;-73
2022/05/06 05:34:11;;;;;;;33.00;19.07;;;9.60;99.90;;;;;;4194982;28;20673;-72
2022/05/06 05:36:13;;;;;;;34.33;20.33;;;9.50;99.90;;;;;;4195554;28;20194;-72
2022/05/06 05:38:13;;;;;;;31.87;17.83;;;9.60;99.90;;;;;;4196316;28;20226;-72
2022/05/06 05:40:14;;;;;;;32.70;20.60;;;9.70;99.90;;;;;;4196336;28;20225;-72
2022/05/06 05:42:22;;;;;;;29.13;19.23;;;9.70;99.90;;;;;;4196167;28;20190;-74
2022/05/06 05:49:01;;;;;;;33.80;21.00;;;9.70;99.90;;;;;;4178512;28;20713;-72
2022/05/06 05:51:02;;;;;;;31.90;20.50;;;9.80;99.90;;;;;;4179473;28;20210;-73
2022/05/06 05:53:05;;;;;;;33.47;19.17;;;9.90;99.90;;;;;;4179468;28;20662;-73
2022/05/06 05:55:06;;;;;;;31.80;18.73;;;10.00;99.90;;;;;;4187630;28;20665;-73
2022/05/06 05:57:07;;;;;;;34.07;20.87;;;10.00;99.90;;;;;;4195623;28;20190;-72
2022/05/06 05:59:07;;;;;;;38.53;20.83;;;9.90;99.90;;;;;;4195655;28;20267;-73
2022/05/06 06:01:08;;;;;;;31.07;19.27;;;9.90;99.90;;;;;;4196015;28;20215;-72
2022/05/06 06:03:09;;;;;;;30.20;19.47;;;9.90;99.90;;;;;;4196103;28;20269;-72
2022/05/06 06:05:09;;;;;;;31.73;19.23;;;10.00;99.90;;;;;;4195699;28;20642;-72
2022/05/06 06:07:10;;;;;;;28.83;16.90;;;10.00;99.90;;;;;;4194317;28;20862;-72
2022/05/06 06:09:11;;;;;;;29.10;18.27;;;10.00;99.90;;;;;;4194804;28;20786;-72
2022/05/06 06:11:12;;;;;;;32.17;18.60;;;9.90;99.90;;;;;;4194512;28;20211;-72
2022/05/06 06:13:16;;;;;;;37.30;19.90;;;9.90;99.90;;;;;;4194665;28;20704;-72
2022/05/06 06:15:16;;;;;;;28.60;17.70;;;9.90;99.90;;;;;;4194331;28;20788;-72
2022/05/06 06:17:17;;;;;;;27.87;18.20;;;10.00;99.90;;;;;;4194232;28;20184;-72
2022/05/06 06:19:18;;;;;;;31.83;19.53;;;10.00;99.90;;;;;;4195952;28;20187;-74
2022/05/06 06:21:19;;;;;;;31.97;19.70;;;9.90;99.90;;;;;;4195903;28;20734;-72
2022/05/06 06:23:20;;;;;;;30.40;19.57;;;10.10;99.90;;;;;;4194543;28;20184;-71
2022/05/06 06:25:21;;;;;;;28.60;18.23;;;10.00;99.90;;;;;;4194534;28;20179;-72
2022/05/06 06:27:25;;;;;;;33.90;21.33;;;10.10;99.90;;;;;;4195810;28;20218;-72
2022/05/06 06:29:26;;;;;;;26.97;18.07;;;10.20;99.90;;;;;;4194468;28;20200;-72
2022/05/06 06:31:30;;;;;;;30.17;18.97;;;10.20;99.90;;;;;;4195547;28;20256;-72
2022/05/06 06:33:32;;;;;;;25.57;18.33;;;10.40;99.90;;;;;;4195634;28;20183;-72
2022/05/06 06:35:32;;;;;;;24.83;17.30;;;10.50;99.90;;;;;;4193650;28;20650;-72
2022/05/06 06:37:33;;;;;;;24.50;16.23;;;10.60;99.90;;;;;;4194142;28;20190;-75
2022/05/06 06:39:34;;;;;;;26.97;15.77;;;10.70;99.90;;;;;;4195466;28;20883;-71
2022/05/06 06:41:35;;;;;;;22.50;15.63;;;11.00;99.90;;;;;;4194440;28;20561;-71
2022/05/06 06:43:36;;;;;;;25.17;17.77;;;11.10;99.90;;;;;;4194544;28;20658;-68
2022/05/06 06:45:37;;;;;;;24.30;17.70;;;11.20;99.90;;;;;;4185231;28;20184;-69
2022/05/06 06:47:39;;;;;;;23.70;16.83;;;11.00;99.90;;;;;;4189838;28;20199;-68
2022/05/06 06:49:40;;;;;;;22.93;16.53;;;11.20;99.90;;;;;;4190389;28;20207;-68
2022/05/06 06:51:40;;;;;;;21.87;16.13;;;11.30;99.90;;;;;;4191404;28;20960;-69
2022/05/06 06:53:41;;;;;;;19.83;14.43;;;11.40;99.90;;;;;;4190456;28;20184;-69
2022/05/06 06:55:42;;;;;;;20.53;15.53;;;11.20;99.90;;;;;;4188686;28;20202;-67
2022/05/06 06:57:43;;;;;;;22.83;17.27;;;11.50;99.90;;;;;;4193754;28;20176;-68
2022/05/06 06:59:43;;;;;;;21.57;14.80;;;11.50;99.90;;;;;;4194981;28;20666;-68
2022/05/06 07:01:44;;;;;;;20.47;14.83;;;11.50;99.90;;;;;;4194639;28;20231;-68
2022/05/06 07:03:45;;;;;;;20.07;14.13;;;11.70;99.90;;;;;;4194783;28;20214;-68
2022/05/06 07:12:43;;;;;;;19.57;14.30;;;11.50;99.90;;;;;;4194678;28;20186;-67
2022/05/06 07:14:44;;;;;;;21.10;14.57;;;11.40;99.90;;;;;;4194821;28;20646;-69
2022/05/06 07:16:44;;;;;;;23.70;16.67;;;11.60;99.90;;;;;;4193113;28;20709;-68
2022/05/06 07:18:45;;;;;;;20.77;14.63;;;11.60;99.90;;;;;;4193667;28;20828;-69
2022/05/06 07:20:46;;;;;;;25.00;17.13;;;11.50;99.90;;;;;;4194412;28;20647;-69
2022/05/06 07:22:46;;;;;;;22.30;15.33;;;11.10;99.90;;;;;;4195086;28;20553;-68
2022/05/06 07:24:47;;;;;;;22.13;15.97;;;11.10;99.90;;;;;;4194556;28;20210;-68
2022/05/06 07:26:48;;;;;;;21.23;15.60;;;11.20;99.90;;;;;;4194231;28;20195;-72
2022/05/06 07:28:49;;;;;;;23.50;14.90;;;11.10;99.90;;;;;;4194678;28;20260;-71
2022/05/06 07:30:49;;;;;;;22.33;15.07;;;10.90;99.90;;;;;;4194393;28;20223;-68
2022/05/06 07:32:50;;;;;;;22.73;15.00;;;10.90;99.90;;;;;;4193437;28;20191;-69
2022/05/06 07:34:51;;;;;;;19.67;14.30;;;10.90;99.90;;;;;;4193319;28;20180;-68
2022/05/06 07:36:51;;;;;;;22.33;14.63;;;10.90;99.90;;;;;;4195250;28;20219;-68
2022/05/06 07:38:52;;;;;;;23.83;16.80;;;11.00;99.90;;;;;;4198159;28;20237;-72
2022/05/06 07:40:53;;;;;;;21.47;15.97;;;10.90;99.90;;;;;;4186049;28;20219;-73
2022/05/06 07:42:53;;;;;;;19.53;14.20;;;11.00;99.90;;;;;;4196871;28;20219;-71
2022/05/06 07:44:55;;;;;;;20.80;13.57;;;11.20;99.90;;;;;;4181355;28;20684;-69
2022/05/06 07:46:56;;;;;;;24.60;14.63;;;11.30;99.90;;;;;;4180678;28;20281;-70
2022/05/06 07:48:56;;;;;;;19.33;13.53;;;11.20;99.90;;;;;;4181383;28;20184;-69
2022/05/06 07:50:58;;;;;;;18.90;14.37;;;11.40;99.90;;;;;;4179578;28;20220;-70
2022/05/06 07:52:59;;;;;;;24.13;15.97;;;11.60;99.90;;;;;;4181160;28;20262;-70
2022/05/06 07:54:59;;;;;;;20.47;14.97;;;11.40;99.90;;;;;;4182625;28;20180;-70
2022/05/06 07:57:01;;;;;;;18.73;14.40;;;11.00;99.90;;;;;;4196962;28;20180;-69
2022/05/06 07:59:01;;;;;;;25.17;17.20;;;11.10;99.90;;;;;;4196781;28;20194;-70
2022/05/06 08:01:02;;;;;;;19.93;13.47;;;11.20;99.90;;;;;;4197561;28;20270;-71
2022/05/06 08:05:26;;;;;;;18.73;13.50;;;11.90;99.90;;;;;;4195511;28;20263;-69
2022/05/06 08:07:26;;;;;;;22.17;15.63;;;12.20;99.90;;;;;;4197237;28;20283;-68
2022/05/06 08:09:27;;;;;;;19.40;13.93;;;12.10;99.90;;;;;;4197381;28;20245;-70
2022/05/06 08:11:28;;;;;;;18.57;13.33;;;12.20;99.90;;;;;;4197084;28;20666;-69
2022/05/06 08:13:28;;;;;;;17.60;13.20;;;11.70;99.90;;;;;;4197118;28;20223;-68
2022/05/06 08:15:29;;;;;;;16.33;13.57;;;11.70;99.90;;;;;;4196364;28;20179;-68
2022/05/06 08:17:30;;;;;;;16.77;13.43;;;11.70;99.90;;;;;;4197023;28;20222;-67
2022/05/06 08:19:31;;;;;;;18.90;13.07;;;11.90;99.90;;;;;;4195510;28;20960;-67
2022/05/06 08:21:31;;;;;;;16.37;12.97;;;12.00;99.90;;;;;;4196064;28;20830;-68
2022/05/06 08:23:32;;;;;;;16.37;12.67;;;12.10;99.90;;;;;;4196957;28;20195;-68
2022/05/06 08:25:33;;;;;;;18.67;12.83;;;12.20;99.90;;;;;;4195958;28;20195;-69
2022/05/06 08:27:37;;;;;;;18.63;14.10;;;12.30;99.90;;;;;;4195487;28;20582;-69
2022/05/06 08:29:39;;;;;;;15.47;11.73;;;12.40;99.90;;;;;;4195605;28;20207;-71
2022/05/06 08:31:40;;;;;;;14.73;11.10;;;12.70;98.50;;;;;;4196859;28;20211;-66
2022/05/06 08:33:41;;;;;;;16.47;12.00;;;12.90;97.50;;;;;;4195003;28;20186;-67
2022/05/06 08:35:43;;;;;;;17.97;12.27;;;12.90;99.60;;;;;;4195941;28;20579;-68
2022/05/06 08:37:48;;;;;;;14.10;11.07;;;12.70;99.60;;;;;;4195359;28;20171;-67
2022/05/06 08:39:48;;;;;;;14.33;11.53;;;12.50;99.90;;;;;;4195385;28;20770;-69
2022/05/06 08:41:51;;;;;;;13.83;9.70;;;12.90;99.20;;;;;;4196097;28;20184;-68
2022/05/06 08:43:51;;;;;;;12.47;10.13;;;13.20;97.10;;;;;;4196373;28;20180;-69
2022/05/06 08:50:53;;;;;;;12.53;9.40;;;13.50;94.30;;;;;;4212615;28;20661;-69
2022/05/06 08:52:54;;;;;;;13.07;10.30;;;13.30;97.00;;;;;;4182765;28;20240;-71
2022/05/06 08:54:55;;;;;;;13.37;10.53;;;13.40;97.00;;;;;;4208691;28;20186;-70
2022/05/06 08:56:58;;;;;;;11.83;9.30;;;13.70;95.70;;;;;;4197997;28;20187;-71
2022/05/06 08:58:59;;;;;;;11.83;8.97;;;13.70;95.70;;;;;;4209124;28;20171;-71
2022/05/06 09:01:14;;;;;;;13.47;9.63;;;13.60;95.00;;;;;;4197868;28;20210;-71
2022/05/06 09:03:17;;;;;;;14.70;11.00;;;13.40;95.10;;;;;;4207081;28;20271;-67
2022/05/06 09:05:19;;;;;;;11.97;9.47;;;13.40;96.20;;;;;;4202650;28;20185;-71
2022/05/06 09:07:23;;;;;;;18.13;10.30;;;13.40;94.80;;;;;;4208051;28;20203;-68
2022/05/06 09:09:24;;;;;;;13.03;8.57;;;13.70;95.70;;;;;;4202452;28;20199;-70
2022/05/06 09:13:49;;;;;;;12.30;8.80;;;13.70;93.50;;;;;;4205756;28;20710;-69
2022/05/06 09:18:09;;;;;;;15.13;8.80;;;13.50;94.60;;;;;;4203668;28;20262;-70
2022/05/06 09:20:19;;;;;;;24.73;9.80;;;13.40;93.80;;;;;;4199778;28;20721;-70
2022/05/06 09:22:20;;;;;;;16.87;9.17;;;13.30;93.70;;;;;;4208301;28;20167;-70
2022/05/06 09:24:20;;;;;;;11.33;8.60;;;13.50;93.30;;;;;;4198315;28;20168;-70
2022/05/06 09:26:21;;;;;;;9.70;7.90;;;13.90;92.20;;;;;;4196644;28;20183;-71
2022/05/06 09:28:24;;;;;;;14.67;7.90;;;14.00;91.90;;;;;;4195494;28;20688;-70
2022/05/06 09:30:25;;;;;;;22.63;11.07;;;14.10;91.30;;;;;;4210105;28;20624;-70
2022/05/06 09:32:28;;;;;;;17.00;8.47;;;14.10;91.10;;;;;;4196081;28;20215;-70
2022/05/06 09:34:29;;;;;;;11.47;9.60;;;14.30;91.90;;;;;;4209604;28;20286;-72
2022/05/06 09:36:29;;;;;;;12.47;7.93;;;14.90;87.90;;;;;;4196349;28;20190;-71
2022/05/06 09:38:30;;;;;;;8.60;6.47;;;14.80;87.30;;;;;;4195503;28;20855;-72
2022/05/06 09:40:31;;;;;;;11.80;7.23;;;14.90;85.40;;;;;;4210828;28;20230;-72
2022/05/06 09:42:33;;;;;;;9.20;7.13;;;14.90;82.40;;;;;;4195386;28;20187;-71
2022/05/06 09:44:34;;;;;;;9.73;7.97;;;15.30;80.40;;;;;;4210196;28;20190;-71
2022/05/06 09:46:35;;;;;;;8.10;6.50;;;15.20;81.10;;;;;;4194270;28;20666;-72
2022/05/06 09:48:57;;;;;;;9.20;7.00;;;15.10;81.60;;;;;;4196479;28;20314;-70
2022/05/06 09:51:00;;;;;;;10.17;8.27;;;15.20;78.30;;;;;;4165676;28;20216;-71
2022/05/06 09:53:03;;;;;;;8.83;7.43;;;15.10;80.70;;;;;;4207825;28;20221;-71
2022/05/06 09:55:08;;;;;;;8.87;6.07;;;14.70;83.90;;;;;;4192266;28;20579;-71
2022/05/06 09:57:14;;;;;;;8.60;6.37;;;14.40;83.00;;;;;;4197111;28;20185;-76
2022/05/06 09:59:15;;;;;;;8.63;6.60;;;14.80;84.40;;;;;;4206959;28;20175;-70
2022/05/06 10:01:17;;;;;;;9.63;7.57;;;15.20;79.60;;;;;;4198188;28;20183;-70
2022/05/06 10:03:18;;;;;;;10.77;7.07;;;15.10;79.30;;;;;;4206573;28;20278;-73
2022/05/06 10:05:18;;;;;;;9.13;6.63;;;15.60;78.20;;;;;;4199106;28;20771;-74
2022/05/06 10:07:20;;;;;;;11.27;7.10;;;15.90;75.60;;;;;;4205023;28;20186;-71
2022/05/06 10:09:23;;;;;;;10.10;7.87;;;16.30;73.50;;;;;;4199581;28;20187;-70
2022/05/06 10:11:28;;;;;;;9.93;6.40;;;15.70;78.80;;;;;;4204498;28;20207;-70
2022/05/06 10:13:32;;;;;;;10.30;7.33;;;15.80;76.80;;;;;;4200603;28;20251;-70
2022/05/06 10:15:33;;;;;;;10.90;6.70;;;15.50;74.70;;;;;;4202388;28;20183;-69
2022/05/06 10:17:55;;;;;;;9.53;8.30;;;15.60;75.70;;;;;;4197350;28;20241;-69
2022/05/06 10:19:56;;;;;;;8.53;6.97;;;15.70;75.30;;;;;;4204265;28;20214;-70
2022/05/06 10:22:03;;;;;;;8.67;6.47;;;15.90;72.90;;;;;;4226978;27;20553;-70
2022/05/06 10:24:15;;;;;;;8.20;6.20;;;16.10;74.10;;;;;;4225619;28;20346;-71
2022/05/06 10:26:41;;;;;;;7.67;6.27;;;16.20;72.30;;;;;;4226753;28;20193;-71
2022/05/06 10:34:10;;;;;;;7.53;6.70;;;16.80;70.30;;;;;;4216806;28;20188;-70
2022/05/06 10:36:46;;;;;;;9.63;7.10;;;17.40;63.90;;;;;;4211664;28;20213;-70
2022/05/06 10:38:47;;;;;;;9.70;6.40;;;17.30;70.20;;;;;;4206775;28;20186;-70
2022/05/06 10:40:57;;;;;;;7.47;6.63;;;18.10;65.40;;;;;;4224075;28;20202;-70
2022/05/06 10:42:58;;;;;;;12.00;6.50;;;18.10;64.70;;;;;;4210949;28;20171;-71
2022/05/06 10:44:58;;;;;;;8.07;5.97;;;17.80;64.40;;;;;;4218310;28;20179;-72
2022/05/06 10:46:59;;;;;;;8.93;7.67;;;17.90;63.10;;;;;;4210428;28;20175;-72
2022/05/06 10:49:46;;;;;;;7.67;6.83;;;18.40;61.20;;;;;;4222437;28;20183;-69
2022/05/06 10:51:46;;;;;;;8.33;6.20;;;17.60;63.80;;;;;;4216197;28;20178;-72
2022/05/06 10:53:47;;;;;;;9.30;6.07;;;18.50;62.70;;;;;;4212142;28;20194;-71
2022/05/06 10:55:48;;;;;;;9.97;6.53;;;19.20;57.40;;;;;;4209438;28;20202;-73
2022/05/06 10:58:03;;;;;;;7.90;6.70;;;18.60;56.30;;;;;;4208083;28;20184;-69
2022/05/06 11:00:06;;;;;;;9.33;5.93;;;18.10;61.10;;;;;;4207981;28;20209;-68
2022/05/06 11:02:13;;;;;;;9.77;6.80;;;19.00;57.10;;;;;;4220023;28;20232;-68
2022/05/06 11:04:17;;;;;;;8.67;7.03;;;18.30;57.80;;;;;;4211704;28;20711;-69
2022/05/06 11:06:24;;;;;;;8.63;6.23;;;18.10;57.80;;;;;;4221366;28;20189;-72
2022/05/06 11:08:34;;;;;;;14.50;9.20;;;18.40;58.00;;;;;;4210081;28;20175;-74